Time;durP1;ratioP1;P1;durP2;ratioP2;P2;SDS_P1;SDS_P2;PMS_P1;PMS_P2;Temp;Humidity;BMP_temperature;BMP_pressure;BME280_temperature;BME280_humidity;BME280_pressure;Samples;Min_cycle;Max_cycle;Signal;HPM_P1;HPM_P2
2022/11/04 00:01:48;;;;;;;61.67;28.60;;;;;;;6.39;65.66;100901.78;124673;1099;104245;-73
2022/11/04 00:04:21;;;;;;;60.53;27.37;;;;;;;6.35;65.50;100900.72;124605;1099;104390;-73
2022/11/04 00:06:53;;;;;;;56.53;27.50;;;;;;;6.31;65.50;100896.15;124662;1099;104241;-73
2022/11/04 00:09:26;;;;;;;62.37;28.70;;;;;;;6.29;65.40;100889.92;124645;1099;102809;-73
2022/11/04 00:14:48;;;;;;;59.57;29.10;;;;;;;6.17;66.17;100892.72;124704;1099;102259;-74
2022/11/04 00:17:20;;;;;;;61.50;27.17;;;;;;;6.09;66.20;100883.52;124666;1099;104201;-73
2022/11/04 00:34:00;;;;;;;59.73;29.90;;;;;;;6.06;65.92;100871.23;124574;1098;102334;-73
2022/11/04 00:36:31;;;;;;;57.90;28.90;;;;;;;6.12;66.05;100873.28;124632;1098;104267;-73
2022/11/04 00:39:02;;;;;;;58.23;29.40;;;;;;;6.16;66.08;100869.18;124700;1099;102895;-73
2022/11/04 00:41:33;;;;;;;65.13;30.07;;;;;;;6.20;66.33;100871.14;124726;1099;104342;-73
2022/11/04 00:44:06;;;;;;;62.40;31.40;;;;;;;6.20;66.39;100869.45;124674;1098;102702;-73
2022/11/04 00:46:37;;;;;;;63.07;31.57;;;;;;;6.20;66.40;100877.27;124238;1099;102838;-73
2022/11/04 00:49:08;;;;;;;65.80;31.93;;;;;;;6.20;66.11;100874.66;124726;1099;102486;-73
2022/11/04 00:51:39;;;;;;;63.57;31.10;;;;;;;6.14;66.06;100868.17;124290;1102;102682;-73
2022/11/04 00:54:10;;;;;;;63.63;31.17;;;;;;;6.05;66.49;100859.00;124651;1099;103136;-73
2022/11/04 00:56:42;;;;;;;59.23;29.80;;;;;;;5.96;66.12;100857.53;124616;1099;108354;-72
2022/11/04 00:59:13;;;;;;;64.40;30.20;;;;;;;5.89;66.30;100851.03;124683;1099;104172;-73
2022/11/04 01:01:44;;;;;;;62.57;31.07;;;;;;;5.86;66.62;100853.45;124696;1099;104172;-72
2022/11/04 01:04:15;;;;;;;60.93;28.70;;;;;;;5.89;66.70;100851.03;124739;1098;104233;-73
2022/11/04 01:06:47;;;;;;;58.70;28.95;;;;;;;5.94;66.51;100847.02;124605;1099;104236;-73
2022/11/04 01:09:18;;;;;;;62.47;29.77;;;;;;;5.99;66.59;100835.19;124695;1099;104169;-73
2022/11/04 01:11:49;;;;;;;59.80;27.93;;;;;;;6.04;66.44;100833.75;124744;1099;104175;-72
2022/11/04 01:14:20;;;;;;;56.47;27.73;;;;;;;6.04;66.67;100828.53;124732;1099;104673;-73
2022/11/04 01:16:54;;;;;;;55.98;27.13;;;;;;;6.05;66.70;100821.64;124721;1099;104172;-72
2022/11/04 01:19:25;;;;;;;60.53;28.00;;;;;;;5.97;66.65;100820.27;124661;1099;104236;-72
2022/11/04 01:21:56;;;;;;;55.53;28.30;;;;;;;5.91;66.73;100819.08;124650;1099;104207;-72
2022/11/04 01:24:27;;;;;;;55.93;27.57;;;;;;;5.84;66.82;100827.31;124753;1099;104245;-73
2022/11/04 01:26:59;;;;;;;57.93;27.77;;;;;;;5.75;66.98;100827.69;124637;1099;104265;-73
2022/11/04 01:29:30;;;;;;;57.57;28.03;;;;;;;5.68;66.68;100833.31;124677;1099;104183;-73
2022/11/04 01:32:01;;;;;;;57.30;28.33;;;;;;;5.65;67.07;100829.64;124650;1099;102361;-72
2022/11/04 01:34:32;;;;;;;54.67;28.93;;;;;;;5.60;66.94;100831.96;124389;1099;104277;-73
2022/11/04 01:37:04;;;;;;;55.93;28.07;;;;;;;5.62;66.99;100829.45;124639;1099;104165;-72
2022/11/04 01:39:35;;;;;;;53.87;27.47;;;;;;;5.61;67.13;100828.56;124693;1099;104248;-73
2022/11/04 01:42:06;;;;;;;57.13;29.27;;;;;;;5.55;67.46;100834.28;124681;1099;104179;-73
2022/11/04 01:44:59;;;;;;;59.50;29.13;;;;;;;5.46;67.55;100835.43;124739;1099;104248;-73
2022/11/04 01:47:37;;;;;;;58.97;29.50;;;;;;;5.33;67.82;100834.67;124250;1099;101964;-73
2022/11/04 01:50:12;;;;;;;54.10;27.60;;;;;;;5.25;67.82;100830.70;124687;1099;104255;-73
2022/11/04 01:52:47;;;;;;;62.77;29.10;;;;;;;5.17;67.52;100830.22;124677;1099;104217;-73
2022/11/04 01:55:23;;;;;;;60.17;28.83;;;;;;;5.11;67.59;100826.31;124688;1098;104639;-72
2022/11/04 01:58:01;;;;;;;60.63;27.73;;;;;;;5.08;67.87;100820.92;124619;1099;120182;-73
2022/11/04 02:00:32;;;;;;;55.77;27.40;;;;;;;5.06;67.65;100817.33;124173;1099;104277;-73
2022/11/04 02:03:08;;;;;;;56.43;27.20;;;;;;;5.06;67.94;100813.02;124547;1099;104182;-72
2022/11/04 02:05:41;;;;;;;61.30;28.27;;;;;;;5.10;67.62;100808.94;124709;1099;104214;-72
2022/11/04 02:08:14;;;;;;;55.10;26.20;;;;;;;5.08;67.91;100810.52;124705;1099;104165;-72
2022/11/04 02:10:56;;;;;;;52.60;25.17;;;;;;;5.04;68.21;100814.64;124723;1099;103072;-72
2022/11/04 02:13:28;;;;;;;55.77;26.97;;;;;;;5.00;68.09;100820.44;124691;1099;102859;-72
2022/11/04 02:16:09;;;;;;;60.13;27.17;;;;;;;4.97;68.18;100817.64;124683;1099;104207;-73
2022/11/04 02:18:59;;;;;;;62.23;28.23;;;;;;;4.91;67.78;100812.05;124638;1099;110873;-73
2022/11/04 02:21:56;;;;;;;60.20;28.57;;;;;;;4.89;68.24;100813.66;124688;1099;104217;-73
2022/11/04 02:24:47;;;;;;;50.27;25.20;;;;;;;4.83;68.63;100819.36;124626;1099;104262;-73
2022/11/04 02:27:33;;;;;;;57.13;26.60;;;;;;;4.72;68.98;100815.19;124661;1099;104277;-73
2022/11/04 02:30:14;;;;;;;53.47;25.23;;;;;;;4.59;68.61;100819.59;124701;1099;103699;-72
2022/11/04 02:33:03;;;;;;;54.33;26.07;;;;;;;4.51;69.27;100815.61;124688;1099;104267;-73
2022/11/04 02:35:44;;;;;;;52.37;25.57;;;;;;;4.46;68.90;100811.81;124656;1099;104332;-73
2022/11/04 02:38:29;;;;;;;51.87;26.00;;;;;;;4.45;69.10;100813.50;124754;1099;104236;-72
2022/11/04 02:41:10;;;;;;;50.27;26.27;;;;;;;4.42;68.57;100810.70;124698;1099;104277;-73
2022/11/04 02:43:49;;;;;;;54.83;26.73;;;;;;;4.41;69.57;100805.40;124691;1099;104280;-73
2022/11/04 02:46:25;;;;;;;54.67;26.87;;;;;;;4.37;69.60;100804.31;124730;1099;104182;-73
2022/11/04 02:49:01;;;;;;;55.57;25.80;;;;;;;4.34;69.21;100806.70;124707;1099;104271;-72
2022/11/04 02:51:37;;;;;;;54.27;27.37;;;;;;;4.31;69.63;100809.11;124692;1099;104823;-73
2022/11/04 02:54:13;;;;;;;52.47;26.60;;;;;;;4.29;69.12;100811.60;124681;1099;104166;-73
2022/11/04 02:56:48;;;;;;;57.33;26.90;;;;;;;4.27;69.27;100813.21;124714;1099;102824;-73
2022/11/04 02:59:24;;;;;;;53.20;27.10;;;;;;;4.25;69.93;100806.10;124767;1099;111585;-73
2022/11/04 03:01:59;;;;;;;57.47;27.27;;;;;;;4.24;69.51;100809.48;124748;1099;102254;-72
2022/11/04 03:04:35;;;;;;;59.83;27.10;;;;;;;4.21;69.81;100802.41;124725;1099;104326;-72
2022/11/04 03:07:11;;;;;;;53.40;26.63;;;;;;;4.18;70.20;100793.53;124702;1099;103740;-73
2022/11/04 03:09:47;;;;;;;54.30;26.50;;;;;;;4.16;70.33;100803.82;124505;1099;104287;-72
2022/11/04 03:12:23;;;;;;;56.23;27.50;;;;;;;4.18;70.34;100803.92;124711;1099;104190;-73
2022/11/04 03:15:01;;;;;;;55.07;26.87;;;;;;;4.19;69.80;100795.30;124746;1099;102312;-72
2022/11/04 03:17:36;;;;;;;52.50;24.90;;;;;;;4.22;70.30;100796.40;124701;1099;104207;-73
2022/11/04 03:20:12;;;;;;;51.37;25.77;;;;;;;4.22;69.71;100801.59;124705;1099;107083;-72
2022/11/04 03:22:44;;;;;;;51.67;25.37;;;;;;;4.25;70.06;100798.31;124681;1099;104195;-73
2022/11/04 03:25:16;;;;;;;57.03;25.53;;;;;;;4.26;70.09;100797.52;124319;1099;104169;-73
2022/11/04 03:27:56;;;;;;;58.53;26.13;;;;;;;4.29;69.90;100796.02;124709;1099;104178;-73
2022/11/04 03:30:32;;;;;;;49.50;25.87;;;;;;;4.32;70.29;100793.62;124700;1099;117844;-72
2022/11/04 03:33:11;;;;;;;48.97;24.93;;;;;;;4.34;70.10;100796.31;124658;1099;104379;-72
2022/11/04 03:35:42;;;;;;;50.43;25.77;;;;;;;4.38;70.46;100785.34;124302;1099;104318;-72
2022/11/04 03:38:14;;;;;;;50.97;24.37;;;;;;;4.42;69.99;100792.51;124655;1099;104185;-72
2022/11/04 03:40:45;;;;;;;53.23;25.17;;;;;;;4.49;70.44;100799.91;124289;1099;104273;-72
2022/11/04 03:43:21;;;;;;;49.67;25.90;;;;;;;4.54;70.22;100800.21;124702;1099;102758;-72
2022/11/04 03:45:52;;;;;;;50.80;25.63;;;;;;;4.54;70.18;100787.22;124729;1099;104239;-72
2022/11/04 03:48:23;;;;;;;50.70;25.40;;;;;;;4.56;70.44;100790.80;124783;1099;104172;-72
2022/11/04 03:50:55;;;;;;;52.87;24.93;;;;;;;4.58;70.29;100784.03;124678;1099;102844;-73
2022/11/04 03:53:28;;;;;;;52.60;25.80;;;;;;;4.60;70.35;100785.02;124307;1102;103384;-73
2022/11/04 03:56:23;;;;;;;47.67;24.57;;;;;;;4.63;69.90;100789.52;124722;1099;102376;-72
2022/11/04 03:59:06;;;;;;;54.63;24.60;;;;;;;4.63;70.56;100779.13;124655;1099;104060;-72
2022/11/04 04:01:45;;;;;;;52.17;25.07;;;;;;;4.65;69.68;100785.31;124726;1099;102816;-72
2022/11/04 04:04:24;;;;;;;54.27;26.07;;;;;;;4.63;70.39;100780.02;124729;1099;104644;-73
2022/11/04 04:07:04;;;;;;;50.07;26.03;;;;;;;4.66;69.84;100780.20;124712;1099;102853;-73
2022/11/04 04:09:41;;;;;;;53.87;26.20;;;;;;;4.68;70.18;100777.70;124626;1099;101874;-73
2022/11/04 04:12:18;;;;;;;49.90;24.73;;;;;;;4.67;70.42;100779.42;124604;1098;104190;-72
2022/11/04 04:14:53;;;;;;;51.00;25.67;;;;;;;4.63;70.27;100779.13;124633;1099;104227;-72
2022/11/04 04:17:31;;;;;;;50.17;24.60;;;;;;;4.58;69.93;100780.50;124707;1099;104175;-72
2022/11/04 04:20:06;;;;;;;48.50;24.83;;;;;;;4.54;69.90;100779.42;124734;1099;101893;-72
2022/11/04 04:22:41;;;;;;;52.10;28.07;;;;;;;4.56;70.11;100783.00;124734;1099;104248;-72
2022/11/04 04:28:06;;;;;;;52.73;28.03;;;;;;;4.56;70.62;100790.80;124734;1099;104178;-73
2022/11/04 04:30:38;;;;;;;59.48;29.02;;;;;;;4.53;70.17;100789.72;124789;1098;104216;-72
2022/11/04 04:33:13;;;;;;;55.80;29.63;;;;;;;4.52;70.01;100781.03;124695;1099;104186;-72
2022/11/04 04:35:49;;;;;;;61.43;30.90;;;;;;;4.55;70.68;100780.31;124722;1099;104188;-72
2022/11/04 04:47:01;;;;;;;56.28;28.20;;;;;;;4.57;70.27;100787.41;124702;1099;104326;-73
2022/11/04 04:49:34;;;;;;;63.17;30.60;;;;;;;4.56;70.17;100793.41;124264;1099;104274;-72
2022/11/04 04:52:08;;;;;;;68.57;33.42;;;;;;;4.53;70.28;100795.80;124636;1099;110142;-72
2022/11/04 04:54:39;;;;;;;72.27;32.83;;;;;;;4.54;70.36;100795.02;124697;1099;102825;-72
2022/11/04 04:57:10;;;;;;;68.05;33.00;;;;;;;4.53;70.53;100797.52;124707;1099;104201;-72
2022/11/04 04:59:41;;;;;;;100.27;37.43;;;;;;;4.53;70.52;100805.31;124492;1099;102878;-72
2022/11/04 05:02:12;;;;;;;80.73;35.00;;;;;;;4.51;70.62;100805.21;124647;1099;104321;-73
2022/11/04 05:04:44;;;;;;;71.00;34.33;;;;;;;4.45;70.43;100805.70;124685;1099;104427;-73
2022/11/04 05:07:15;;;;;;;62.43;32.33;;;;;;;4.40;70.78;100798.42;124697;1099;104166;-72
2022/11/04 05:09:46;;;;;;;65.27;32.57;;;;;;;4.41;70.77;100810.59;124723;1099;102927;-73
2022/11/04 05:12:18;;;;;;;57.97;31.13;;;;;;;4.42;70.19;100808.09;124745;1099;104222;-73
2022/11/04 05:14:49;;;;;;;62.80;30.63;;;;;;;4.45;70.37;100804.81;124762;1099;104639;-73
2022/11/04 05:17:20;;;;;;;85.10;36.20;;;;;;;4.47;70.56;100809.32;124661;1099;104173;-73
2022/11/04 05:19:51;;;;;;;89.87;41.07;;;;;;;4.48;70.24;100812.80;124772;1099;102669;-72
2022/11/04 05:22:22;;;;;;;83.80;44.20;;;;;;;4.46;70.26;100806.63;124697;1099;104299;-72
2022/11/04 05:24:53;;;;;;;76.23;38.43;;;;;;;4.41;70.15;100814.12;124742;1099;104166;-72
2022/11/04 05:27:25;;;;;;;71.73;36.47;;;;;;;4.39;70.60;100807.01;124566;1099;104412;-72
2022/11/04 05:29:56;;;;;;;65.50;33.17;;;;;;;4.40;70.52;100811.42;124613;1099;104245;-73
2022/11/04 05:32:28;;;;;;;65.53;33.30;;;;;;;4.36;70.06;100817.20;124710;1099;104341;-72
2022/11/04 05:34:59;;;;;;;66.23;33.40;;;;;;;4.30;70.74;100817.69;124756;1099;104198;-73
2022/11/04 05:37:30;;;;;;;58.40;31.20;;;;;;;4.28;70.90;100827.09;124275;1099;104258;-72
2022/11/04 05:40:02;;;;;;;66.17;33.17;;;;;;;4.30;70.52;100831.59;124703;1099;102850;-73
2022/11/04 05:42:35;;;;;;;65.43;31.53;;;;;;;4.34;71.04;100824.00;124502;1099;104322;-73
2022/11/04 05:45:08;;;;;;;64.17;31.97;;;;;;;4.37;70.59;100827.70;124645;1099;102889;-72
2022/11/04 05:47:43;;;;;;;63.63;33.13;;;;;;;4.40;70.49;100829.61;124283;1099;104159;-72
2022/11/04 05:50:14;;;;;;;52.93;28.27;;;;;;;4.44;71.15;100836.78;124443;1099;104207;-72
2022/11/04 05:52:45;;;;;;;51.73;27.53;;;;;;;4.46;71.07;100841.30;124443;1099;103170;-72
2022/11/04 05:55:16;;;;;;;53.97;26.27;;;;;;;4.46;70.72;100843.00;124746;1099;102825;-72
2022/11/04 05:57:47;;;;;;;49.53;26.23;;;;;;;4.48;71.00;100844.88;124802;1099;102720;-72
2022/11/04 06:00:19;;;;;;;52.40;26.97;;;;;;;4.52;70.99;100838.20;124641;1099;104214;-72
2022/11/04 06:02:52;;;;;;;51.30;24.47;;;;;;;4.55;71.53;100841.01;124652;1099;104178;-72
2022/11/04 06:05:23;;;;;;;55.07;25.20;;;;;;;4.57;71.61;100842.00;124725;1099;104249;-72
2022/11/04 06:07:55;;;;;;;50.87;24.83;;;;;;;4.61;71.23;100838.81;124773;1099;104392;-72
2022/11/04 06:10:26;;;;;;;47.80;24.17;;;;;;;4.63;71.66;100842.40;124808;1099;103014;-72
2022/11/04 08:04:53;;;;;;;59.33;28.73;;;;;;;8.50;71.67;100740.70;115825;1102;10001038;-73
2022/11/04 08:07:26;;;;;;;59.70;31.63;;;;;;;8.66;71.48;100736.20;123893;1102;102322;-73
2022/11/04 08:10:00;;;;;;;59.60;29.60;;;;;;;8.84;71.77;100737.06;123941;1102;104255;-73
2022/11/04 08:12:33;;;;;;;;;;;;;;;9.04;70.30;100731.83;124374;1102;104207;-74
2022/11/04 08:15:08;;;;;;;60.23;30.17;;;;;;;9.23;70.58;100718.76;123941;1102;104176;-74
2022/11/04 08:17:42;;;;;;;58.43;28.30;;;;;;;9.42;70.96;100717.84;124056;1102;104297;-74
2022/11/04 08:20:16;;;;;;;52.70;27.23;;;;;;;9.63;70.31;100714.35;124026;1102;104169;-74
2022/11/04 08:22:54;;;;;;;46.67;24.93;;;;;;;9.80;70.51;100707.20;124648;1102;104685;-73
2022/11/04 08:25:30;;;;;;;46.87;24.23;;;;;;;9.98;70.56;100713.22;124663;1102;104280;-74
2022/11/04 08:28:01;;;;;;;51.87;25.83;;;;;;;10.18;70.69;100702.67;123907;1101;104730;-74
2022/11/04 08:30:44;;;;;;;49.30;25.07;;;;;;;10.35;70.11;100700.77;123984;1102;104230;-73
2022/11/04 08:33:15;;;;;;;51.63;26.03;;;;;;;10.41;69.22;100680.91;123972;1105;104217;-74
2022/11/04 08:36:17;;;;;;;53.40;25.10;;;;;;;10.59;69.77;100703.44;124218;1105;104043;-74
2022/11/04 08:39:20;;;;;;;45.73;24.07;;;;;;;10.76;69.26;100696.22;124281;1102;102790;-73
2022/11/04 08:41:52;;;;;;;48.60;23.90;;;;;;;10.88;68.92;100695.80;123936;1103;104239;-73
2022/11/04 08:44:28;;;;;;;42.73;23.50;;;;;;;10.98;68.47;100692.66;124020;1102;104242;-73
2022/11/04 08:47:00;;;;;;;44.90;23.60;;;;;;;11.07;68.88;100692.11;124010;1102;104258;-73
2022/11/04 08:49:37;;;;;;;44.65;23.75;;;;;;;11.19;68.53;100687.31;124001;1106;102376;-73
2022/11/04 08:52:23;;;;;;;43.77;21.80;;;;;;;11.34;68.86;100681.69;124038;1102;104326;-72
2022/11/04 08:55:20;;;;;;;46.63;22.77;;;;;;;11.50;69.07;100676.15;124752;1101;104233;-72
2022/11/04 08:57:53;;;;;;;42.63;21.27;;;;;;;11.65;68.39;100673.13;124010;1105;104230;-73
2022/11/04 09:00:25;;;;;;;44.63;20.12;;;;;;;11.76;68.03;100669.98;124002;1104;102527;-73
2022/11/04 09:02:57;;;;;;;34.67;19.67;;;;;;;11.85;68.09;100676.44;124073;1105;104188;-73
2022/11/04 09:05:32;;;;;;;44.57;20.83;;;;;;;11.96;68.45;100671.56;124051;1105;104095;-73
2022/11/04 09:08:04;;;;;;;37.10;18.40;;;;;;;12.08;67.87;100668.45;124085;1105;104602;-73
2022/11/04 09:10:37;;;;;;;38.43;17.80;;;;;;;12.23;68.33;100660.14;125451;1103;101858;-73
2022/11/04 09:13:10;;;;;;;34.70;18.47;;;;;;;12.35;67.91;100664.91;124158;1102;103299;-73
2022/11/04 09:15:48;;;;;;;34.43;17.10;;;;;;;12.44;67.05;100654.66;124227;1105;104280;-74
2022/11/04 09:18:23;;;;;;;30.43;15.83;;;;;;;12.51;66.98;100647.84;124160;1105;104221;-74
2022/11/04 09:20:54;;;;;;;34.60;16.03;;;;;;;12.61;66.96;100642.02;125347;1105;108604;-73
2022/11/04 09:23:33;;;;;;;33.60;15.83;;;;;;;12.66;67.26;100640.40;124036;1105;103626;-74
2022/11/04 09:26:11;;;;;;;33.87;16.00;;;;;;;12.65;65.81;100635.09;124124;1102;102352;-72
2022/11/04 09:28:42;;;;;;;36.73;16.13;;;;;;;12.67;66.36;100636.93;124102;1102;102329;-74
2022/11/04 09:31:29;;;;;;;32.80;13.63;;;;;;;12.80;66.21;100622.38;124101;1102;104345;-74
2022/11/04 09:34:01;;;;;;;29.30;13.37;;;;;;;12.96;66.07;100618.42;124064;1105;102870;-74
2022/11/04 09:36:32;;;;;;;30.47;12.80;;;;;;;13.07;66.13;100621.35;124009;1105;104225;-74
2022/11/04 09:39:05;;;;;;;28.07;13.00;;;;;;;13.17;65.87;100619.89;124090;1105;104211;-74
2022/11/04 09:41:58;;;;;;;27.37;12.47;;;;;;;13.28;66.04;100621.94;125350;1104;108342;-73
2022/11/04 09:44:40;;;;;;;28.93;12.37;;;;;;;13.39;64.74;100622.25;124051;1105;104258;-72
2022/11/04 09:47:16;;;;;;;29.50;13.53;;;;;;;13.48;65.46;100608.44;124024;1105;102465;-72
2022/11/04 09:49:53;;;;;;;27.67;12.70;;;;;;;13.56;64.45;100606.87;123948;1105;102936;-72
2022/11/04 09:52:28;;;;;;;31.35;11.40;;;;;;;13.64;64.49;100600.04;124103;1105;103118;-72
2022/11/04 09:55:11;;;;;;;24.17;10.93;;;;;;;13.78;64.48;100595.10;124108;1103;104099;-72
2022/11/04 09:57:43;;;;;;;25.93;10.27;;;;;;;13.85;63.59;100585.58;125047;1104;102901;-73
2022/11/04 10:00:19;;;;;;;27.23;9.87;;;;;;;13.92;63.34;100590.16;124063;1105;102923;-74
2022/11/04 10:03:04;;;;;;;22.17;9.20;;;;;;;13.93;62.42;100580.48;124116;1105;104166;-73
2022/11/04 10:05:47;;;;;;;22.95;9.25;;;;;;;13.97;63.03;100571.80;124806;1099;103751;-73
2022/11/04 10:08:42;;;;;;;22.30;9.10;;;;;;;14.01;62.66;100563.99;124243;1099;104271;-72
2022/11/04 10:11:25;;;;;;;20.33;8.17;;;;;;;14.11;62.75;100565.08;124831;1099;102405;-72
2022/11/04 10:14:19;;;;;;;22.10;8.80;;;;;;;14.16;62.60;100566.09;124814;1099;104239;-74
2022/11/04 10:17:05;;;;;;;21.30;8.93;;;;;;;14.23;62.03;100560.92;124421;1100;102335;-73
2022/11/04 10:19:59;;;;;;;21.90;9.13;;;;;;;14.31;62.22;100551.44;124762;1099;104165;-72
2022/11/04 10:22:34;;;;;;;23.10;8.47;;;;;;;14.33;61.62;100541.80;124835;1099;107989;-72
2022/11/04 10:25:14;;;;;;;20.75;8.55;;;;;;;14.36;61.76;100542.74;126011;1099;103276;-73
2022/11/04 10:27:55;;;;;;;24.70;9.47;;;;;;;14.37;61.07;100541.02;124420;1102;104233;-72
2022/11/04 10:30:30;;;;;;;23.17;8.17;;;;;;;14.43;61.42;100540.23;124785;1099;102834;-73
2022/11/04 10:33:13;;;;;;;17.07;5.90;;;;;;;14.50;60.38;100534.23;124419;1099;117730;-72
2022/11/04 10:35:49;;;;;;;17.57;6.30;;;;;;;14.61;61.42;100545.92;124747;1099;102197;-73
2022/11/04 10:38:26;;;;;;;14.33;5.67;;;;;;;14.68;60.49;100539.91;126241;1098;104281;-72
2022/11/04 10:40:58;;;;;;;14.47;5.80;;;;;;;14.77;60.44;100525.97;124866;1099;102476;-72
2022/11/04 10:43:34;;;;;;;15.50;5.87;;;;;;;14.82;59.99;100524.33;124720;1099;104248;-72
2022/11/04 10:46:26;;;;;;;19.60;6.70;;;;;;;14.87;60.26;100524.42;124773;1099;102415;-72
2022/11/04 10:49:05;;;;;;;15.70;5.53;;;;;;;14.88;59.76;100513.88;124679;1099;101975;-72
2022/11/04 10:51:37;;;;;;;16.70;6.13;;;;;;;14.87;58.67;100517.38;124676;1099;102369;-72
2022/11/04 10:54:11;;;;;;;12.97;5.50;;;;;;;14.87;58.54;100513.85;124369;1099;102862;-72
2022/11/04 10:56:54;;;;;;;12.83;5.37;;;;;;;14.86;59.22;100506.78;124742;1099;104163;-71
2022/11/04 10:59:38;;;;;;;16.60;5.80;;;;;;;14.89;58.85;100501.55;124313;1101;102825;-71
2022/11/04 11:02:11;;;;;;;14.63;5.50;;;;;;;14.92;57.66;100506.89;124373;1102;104210;-72
2022/11/04 11:04:44;;;;;;;14.60;5.53;;;;;;;14.95;58.20;100493.73;124900;1099;104268;-73
2022/11/04 11:07:50;;;;;;;15.35;5.80;;;;;;;15.01;57.77;100491.20;124967;1098;102505;-71
2022/11/04 11:10:37;;;;;;;14.03;5.33;;;;;;;15.12;57.97;100482.58;124815;1099;102333;-72
2022/11/04 11:13:26;;;;;;;19.53;6.30;;;;;;;15.17;58.02;100484.41;124340;1099;104360;-72
2022/11/04 11:16:14;;;;;;;14.77;5.63;;;;;;;15.21;57.57;100485.38;124854;1099;104241;-72
2022/11/04 11:19:16;;;;;;;13.93;6.13;;;;;;;15.25;57.08;100472.23;124836;1099;104175;-72
2022/11/04 11:21:50;;;;;;;11.40;5.77;;;;;;;15.25;56.34;100473.97;124784;1099;104201;-72
2022/11/04 11:24:24;;;;;;;13.95;5.60;;;;;;;15.25;56.70;100466.04;124789;1099;104207;-72
2022/11/04 11:26:55;;;;;;;;;;;;;;;15.26;54.89;100467.83;124819;1098;104169;-71
2022/11/04 11:29:29;;;;;;;12.60;5.10;;;;;;;15.21;56.90;100462.47;124296;1099;102341;-72
2022/11/04 11:32:01;;;;;;;;;;;;;;;15.19;55.43;100463.30;124943;1099;104248;-72
2022/11/04 11:34:37;;;;;;;17.07;5.73;;;;;;;15.13;55.21;100452.62;124804;1099;104270;-72
2022/11/04 11:37:23;;;;;;;12.90;5.27;;;;;;;15.10;55.46;100459.65;124745;1099;104190;-71
2022/11/04 11:39:55;;;;;;;12.60;5.30;;;;;;;15.08;55.76;100453.46;124783;1099;103385;-71
2022/11/04 11:42:28;;;;;;;12.37;5.03;;;;;;;15.10;55.46;100456.12;124433;1099;104418;-72
2022/11/04 11:45:03;;;;;;;13.20;5.47;;;;;;;15.11;55.25;100436.74;124789;1098;104277;-72
2022/11/04 11:47:41;;;;;;;13.67;5.60;;;;;;;15.09;55.79;100439.36;124726;1099;103280;-72
2022/11/04 11:50:23;;;;;;;12.30;5.43;;;;;;;15.05;55.83;100440.20;124775;1099;104277;-72
2022/11/04 11:53:07;;;;;;;14.30;5.50;;;;;;;15.01;55.76;100434.83;124694;1099;104241;-72
2022/11/04 11:55:42;;;;;;;18.15;6.25;;;;;;;14.92;54.38;100438.20;124201;1099;104236;-73
2022/11/04 11:58:22;;;;;;;17.40;5.60;;;;;;;14.89;54.68;100438.14;124436;1099;104172;-73
2022/11/04 12:01:02;;;;;;;12.50;6.03;;;;;;;14.84;55.67;100435.42;124688;1099;104246;-73
2022/11/04 12:03:45;;;;;;;17.17;6.50;;;;;;;14.80;54.69;100432.70;124736;1099;102797;-75
2022/11/04 12:06:44;;;;;;;14.93;5.97;;;;;;;14.78;55.88;100434.44;124872;1099;102634;-74
2022/11/04 12:09:32;;;;;;;16.57;6.27;;;;;;;14.73;54.97;100434.36;124781;1099;104163;-76
2022/11/04 12:12:23;;;;;;;17.13;6.33;;;;;;;14.73;54.87;100434.36;124763;1099;104096;-75
2022/11/04 12:15:25;;;;;;;16.77;5.97;;;;;;;14.78;55.09;100429.16;124305;1099;104290;-75
2022/11/04 12:18:16;;;;;;;18.43;6.30;;;;;;;14.86;55.24;100427.52;125227;1099;102086;-75
2022/11/04 12:21:02;;;;;;;16.10;6.15;;;;;;;14.93;54.80;100421.49;124863;1098;102801;-75
2022/11/04 12:26:36;;;;;;;14.23;5.67;;;;;;;15.01;55.00;100421.62;124729;1099;104259;-76
2022/11/04 12:29:28;;;;;;;16.43;5.70;;;;;;;15.02;54.48;100413.72;124696;1099;104179;-73
2022/11/04 12:32:13;;;;;;;18.60;5.80;;;;;;;15.02;54.82;100413.72;124350;1099;102060;-72
2022/11/04 12:34:59;;;;;;;17.23;6.10;;;;;;;15.04;54.47;100408.46;124701;1099;104313;-72
2022/11/04 12:37:41;;;;;;;16.90;6.47;;;;;;;15.06;54.69;100412.88;124630;1099;104063;-72
2022/11/04 12:40:20;;;;;;;17.67;6.47;;;;;;;15.12;55.21;100411.23;124671;1099;102212;-72
2022/11/04 12:43:13;;;;;;;14.33;6.37;;;;;;;15.16;54.68;100406.02;124738;1099;104259;-72
2022/11/04 12:46:01;;;;;;;;;;;;;;;15.12;53.83;100401.53;126072;1098;102439;-74
2022/11/04 12:49:02;;;;;;;20.40;7.00;;;;;;;15.11;54.55;100399.74;124860;1099;104208;-75
2022/11/04 12:51:48;;;;;;;15.93;6.83;;;;;;;15.06;55.09;100393.51;124857;1099;104217;-75
2022/11/04 12:54:31;;;;;;;16.30;6.33;;;;;;;15.02;55.06;100386.39;124840;1099;105515;-74
2022/11/04 12:57:18;;;;;;;18.40;6.20;;;;;;;14.99;54.97;100392.53;124778;1098;104201;-75
2022/11/04 13:00:08;;;;;;;14.17;5.77;;;;;;;14.91;54.75;100378.29;124398;1099;104255;-74
2022/11/04 13:02:50;;;;;;;19.20;6.10;;;;;;;14.95;54.53;100385.41;124808;1099;104156;-74
2022/11/04 13:05:50;;;;;;;17.53;6.37;;;;;;;14.94;54.14;100391.55;124790;1099;104249;-74
2022/11/04 13:08:28;;;;;;;21.67;6.10;;;;;;;14.92;54.92;100391.52;124635;1099;104238;-73
2022/11/04 13:11:21;;;;;;;12.73;6.03;;;;;;;14.90;54.23;100390.62;124804;1099;103357;-73
2022/11/04 13:14:02;;;;;;;19.73;6.23;;;;;;;14.88;54.32;100381.79;124847;1099;104239;-73
2022/11/04 13:16:39;;;;;;;16.43;6.20;;;;;;;14.88;54.75;100379.14;124803;1099;119081;-74
2022/11/04 13:19:24;;;;;;;18.70;6.67;;;;;;;14.87;54.45;100374.72;124325;1102;104970;-74
2022/11/04 13:21:58;;;;;;;17.27;6.50;;;;;;;14.85;54.74;100373.81;124763;1099;104293;-74
2022/11/04 13:24:51;;;;;;;15.58;6.60;;;;;;;14.84;54.27;100368.51;124813;1099;103965;-74
2022/11/04 13:27:26;;;;;;;17.75;6.42;;;;;;;14.82;54.08;100357.91;124808;1099;102303;-75
2022/11/04 13:30:17;;;;;;;19.13;7.37;;;;;;;14.81;53.84;100363.17;124810;1099;104241;-74
2022/11/04 13:32:58;;;;;;;14.77;6.20;;;;;;;14.78;53.96;100363.13;125993;1099;104064;-74
2022/11/04 13:35:40;;;;;;;18.07;6.63;;;;;;;14.72;54.83;100354.24;124592;1099;104268;-74
2022/11/04 13:38:19;;;;;;;17.77;6.70;;;;;;;14.70;54.62;100357.71;124812;1099;104185;-75
2022/11/04 13:41:08;;;;;;;18.30;6.20;;;;;;;14.66;53.72;100348.86;126043;1098;103723;-75
2022/11/04 13:43:48;;;;;;;15.37;6.73;;;;;;;14.62;54.47;100351.42;124499;1099;103163;-75
2022/11/04 13:46:28;;;;;;;16.90;6.87;;;;;;;14.59;54.84;100351.34;124327;1099;102563;-74
2022/11/04 13:49:29;;;;;;;18.57;6.83;;;;;;;14.54;53.80;100349.49;125968;1098;102178;-74
2022/11/04 13:52:08;;;;;;;17.20;6.67;;;;;;;14.52;53.88;100360.88;124377;1099;104159;-77
2022/11/04 13:54:52;;;;;;;18.70;6.97;;;;;;;14.47;53.86;100354.64;126015;1098;104213;-77
2022/11/04 13:57:30;;;;;;;18.07;7.37;;;;;;;14.43;54.47;100353.71;124308;1099;119466;-76
2022/11/04 14:00:32;;;;;;;16.07;6.67;;;;;;;14.41;54.86;100351.89;124396;1099;102899;-76
2022/11/04 14:03:52;;;;;;;17.70;6.97;;;;;;;14.36;54.98;100344.77;124849;1099;101949;-76
2022/11/04 14:06:52;;;;;;;18.10;7.00;;;;;;;14.31;53.90;100354.36;124399;1099;104332;-77
2022/11/04 14:09:50;;;;;;;17.75;6.97;;;;;;;14.27;54.43;100360.44;125912;1098;102348;-75
2022/11/04 14:12:38;;;;;;;20.50;7.80;;;;;;;14.25;55.00;100362.17;124437;1099;104281;-75
2022/11/04 14:15:45;;;;;;;22.03;8.13;;;;;;;14.20;54.35;100361.20;124895;1099;103407;-77